sensor_id;sensor_type;location;lat;lon;timestamp;P1;durP1;ratioP1;P2;durP2;ratioP2
21458;SDS011;10891;49.350;19.386;2023-02-11T00:00:58;171.20;;;55.90;;
21458;SDS011;10891;49.350;19.386;2023-02-11T00:03:25;144.93;;;48.37;;
21458;SDS011;10891;49.350;19.386;2023-02-11T00:05:55;132.20;;;45.13;;
21458;SDS011;10891;49.350;19.386;2023-02-11T00:08:25;163.80;;;56.37;;
21458;SDS011;10891;49.350;19.386;2023-02-11T00:10:52;183.13;;;61.23;;
21458;SDS011;10891;49.350;19.386;2023-02-11T00:13:19;194.17;;;62.70;;
21458;SDS011;10891;49.350;19.386;2023-02-11T00:15:46;189.73;;;61.13;;
21458;SDS011;10891;49.350;19.386;2023-02-11T00:18:13;199.23;;;67.17;;
21458;SDS011;10891;49.350;19.386;2023-02-11T00:20:41;199.63;;;67.23;;
21458;SDS011;10891;49.350;19.386;2023-02-11T00:23:08;205.30;;;67.97;;
21458;SDS011;10891;49.350;19.386;2023-02-11T00:25:38;192.90;;;67.70;;
21458;SDS011;10891;49.350;19.386;2023-02-11T00:28:06;192.13;;;71.43;;
21458;SDS011;10891;49.350;19.386;2023-02-11T00:30:33;188.77;;;63.63;;
21458;SDS011;10891;49.350;19.386;2023-02-11T00:33:00;167.40;;;65.60;;
21458;SDS011;10891;49.350;19.386;2023-02-11T00:35:27;179.10;;;63.53;;
21458;SDS011;10891;49.350;19.386;2023-02-11T00:37:54;172.80;;;58.67;;
21458;SDS011;10891;49.350;19.386;2023-02-11T00:40:21;238.37;;;79.70;;
21458;SDS011;10891;49.350;19.386;2023-02-11T00:42:49;213.03;;;73.67;;
21458;SDS011;10891;49.350;19.386;2023-02-11T00:45:16;204.23;;;73.27;;
21458;SDS011;10891;49.350;19.386;2023-02-11T00:47:44;218.23;;;74.10;;
21458;SDS011;10891;49.350;19.386;2023-02-11T00:50:11;203.93;;;75.10;;
21458;SDS011;10891;49.350;19.386;2023-02-11T00:52:38;259.57;;;87.93;;
21458;SDS011;10891;49.350;19.386;2023-02-11T00:55:06;216.63;;;73.17;;
21458;SDS011;10891;49.350;19.386;2023-02-11T00:57:33;148.23;;;54.17;;
21458;SDS011;10891;49.350;19.386;2023-02-11T01:00:02;213.30;;;73.97;;
21458;SDS011;10891;49.350;19.386;2023-02-11T01:02:29;202.20;;;70.33;;
21458;SDS011;10891;49.350;19.386;2023-02-11T01:04:56;215.93;;;77.57;;
21458;SDS011;10891;49.350;19.386;2023-02-11T01:07:23;199.70;;;60.83;;
21458;SDS011;10891;49.350;19.386;2023-02-11T01:09:50;214.03;;;62.57;;
21458;SDS011;10891;49.350;19.386;2023-02-11T01:12:17;214.77;;;69.73;;
21458;SDS011;10891;49.350;19.386;2023-02-11T01:14:44;182.93;;;59.20;;
21458;SDS011;10891;49.350;19.386;2023-02-11T01:17:13;145.27;;;48.47;;
21458;SDS011;10891;49.350;19.386;2023-02-11T01:19:39;117.07;;;43.73;;
21458;SDS011;10891;49.350;19.386;2023-02-11T01:22:07;99.80;;;35.03;;
21458;SDS011;10891;49.350;19.386;2023-02-11T01:24:34;88.77;;;33.20;;
21458;SDS011;10891;49.350;19.386;2023-02-11T01:27:01;73.93;;;28.33;;
21458;SDS011;10891;49.350;19.386;2023-02-11T01:29:28;103.00;;;35.33;;
21458;SDS011;10891;49.350;19.386;2023-02-11T01:31:55;73.70;;;30.60;;
21458;SDS011;10891;49.350;19.386;2023-02-11T01:34:23;70.80;;;27.40;;
21458;SDS011;10891;49.350;19.386;2023-02-11T01:36:50;95.57;;;33.70;;
21458;SDS011;10891;49.350;19.386;2023-02-11T01:39:21;78.27;;;29.97;;
21458;SDS011;10891;49.350;19.386;2023-02-11T01:41:48;83.40;;;33.47;;
21458;SDS011;10891;49.350;19.386;2023-02-11T01:44:22;85.47;;;32.73;;
21458;SDS011;10891;49.350;19.386;2023-02-11T01:46:51;68.63;;;27.43;;
21458;SDS011;10891;49.350;19.386;2023-02-11T01:49:19;80.17;;;28.73;;
21458;SDS011;10891;49.350;19.386;2023-02-11T01:51:52;85.53;;;30.90;;
21458;SDS011;10891;49.350;19.386;2023-02-11T01:54:23;79.53;;;29.60;;
21458;SDS011;10891;49.350;19.386;2023-02-11T01:57:12;59.63;;;24.83;;
21458;SDS011;10891;49.350;19.386;2023-02-11T01:59:52;63.27;;;23.63;;
21458;SDS011;10891;49.350;19.386;2023-02-11T02:02:28;79.17;;;27.03;;
21458;SDS011;10891;49.350;19.386;2023-02-11T02:05:02;51.63;;;19.40;;
21458;SDS011;10891;49.350;19.386;2023-02-11T02:07:35;53.00;;;21.33;;
21458;SDS011;10891;49.350;19.386;2023-02-11T02:10:08;38.37;;;16.20;;
21458;SDS011;10891;49.350;19.386;2023-02-11T02:12:39;44.07;;;18.23;;
21458;SDS011;10891;49.350;19.386;2023-02-11T02:15:20;42.03;;;18.03;;
21458;SDS011;10891;49.350;19.386;2023-02-11T02:18:02;45.43;;;17.53;;
21458;SDS011;10891;49.350;19.386;2023-02-11T02:23:50;8.93;;;6.23;;
21458;SDS011;10891;49.350;19.386;2023-02-11T02:26:44;40.43;;;17.67;;
21458;SDS011;10891;49.350;19.386;2023-02-11T02:32:40;16.97;;;7.60;;
21458;SDS011;10891;49.350;19.386;2023-02-11T02:35:17;37.83;;;14.13;;
21458;SDS011;10891;49.350;19.386;2023-02-11T02:37:50;25.00;;;9.80;;
21458;SDS011;10891;49.350;19.386;2023-02-11T02:40:23;31.17;;;11.43;;
21458;SDS011;10891;49.350;19.386;2023-02-11T02:42:54;31.57;;;11.63;;
21458;SDS011;10891;49.350;19.386;2023-02-11T02:45:23;28.63;;;12.93;;
21458;SDS011;10891;49.350;19.386;2023-02-11T02:47:51;39.53;;;15.37;;
21458;SDS011;10891;49.350;19.386;2023-02-11T02:50:20;34.77;;;13.80;;
21458;SDS011;10891;49.350;19.386;2023-02-11T02:52:55;27.90;;;14.13;;
21458;SDS011;10891;49.350;19.386;2023-02-11T02:55:38;19.70;;;9.90;;
21458;SDS011;10891;49.350;19.386;2023-02-11T02:58:15;40.13;;;17.03;;
21458;SDS011;10891;49.350;19.386;2023-02-11T03:01:02;22.80;;;8.77;;
21458;SDS011;10891;49.350;19.386;2023-02-11T03:03:37;41.47;;;18.93;;
21458;SDS011;10891;49.350;19.386;2023-02-11T03:06:10;44.20;;;18.90;;
21458;SDS011;10891;49.350;19.386;2023-02-11T03:08:43;37.20;;;17.80;;
21458;SDS011;10891;49.350;19.386;2023-02-11T03:11:14;33.93;;;14.27;;
21458;SDS011;10891;49.350;19.386;2023-02-11T03:13:43;39.30;;;16.70;;
21458;SDS011;10891;49.350;19.386;2023-02-11T03:16:12;46.53;;;16.13;;
21458;SDS011;10891;49.350;19.386;2023-02-11T03:18:47;32.87;;;14.43;;
21458;SDS011;10891;49.350;19.386;2023-02-11T03:21:16;36.00;;;15.27;;
21458;SDS011;10891;49.350;19.386;2023-02-11T03:23:46;40.40;;;17.00;;
21458;SDS011;10891;49.350;19.386;2023-02-11T03:26:20;39.87;;;15.43;;
21458;SDS011;10891;49.350;19.386;2023-02-11T03:28:52;21.97;;;11.17;;
21458;SDS011;10891;49.350;19.386;2023-02-11T03:31:26;28.87;;;13.07;;
21458;SDS011;10891;49.350;19.386;2023-02-11T03:34:01;25.20;;;11.97;;
21458;SDS011;10891;49.350;19.386;2023-02-11T03:36:34;29.27;;;14.83;;
21458;SDS011;10891;49.350;19.386;2023-02-11T03:39:10;41.67;;;16.03;;
21458;SDS011;10891;49.350;19.386;2023-02-11T03:41:39;27.43;;;11.07;;
21458;SDS011;10891;49.350;19.386;2023-02-11T03:44:07;35.53;;;15.40;;
21458;SDS011;10891;49.350;19.386;2023-02-11T03:46:38;37.03;;;16.57;;
21458;SDS011;10891;49.350;19.386;2023-02-11T03:49:11;36.90;;;17.17;;
21458;SDS011;10891;49.350;19.386;2023-02-11T03:51:40;36.70;;;17.20;;
21458;SDS011;10891;49.350;19.386;2023-02-11T03:54:09;36.17;;;16.70;;
21458;SDS011;10891;49.350;19.386;2023-02-11T03:56:40;37.50;;;15.63;;
21458;SDS011;10891;49.350;19.386;2023-02-11T03:59:14;42.17;;;18.13;;
21458;SDS011;10891;49.350;19.386;2023-02-11T04:01:41;46.63;;;18.70;;
21458;SDS011;10891;49.350;19.386;2023-02-11T04:04:07;48.77;;;21.33;;
21458;SDS011;10891;49.350;19.386;2023-02-11T04:06:36;32.40;;;12.20;;
21458;SDS011;10891;49.350;19.386;2023-02-11T04:09:03;41.27;;;17.67;;
21458;SDS011;10891;49.350;19.386;2023-02-11T04:11:29;37.70;;;14.90;;
21458;SDS011;10891;49.350;19.386;2023-02-11T04:13:56;41.73;;;17.00;;
21458;SDS011;10891;49.350;19.386;2023-02-11T04:16:23;35.93;;;16.03;;
21458;SDS011;10891;49.350;19.386;2023-02-11T04:18:50;35.70;;;15.20;;
21458;SDS011;10891;49.350;19.386;2023-02-11T04:21:17;38.17;;;16.83;;
21458;SDS011;10891;49.350;19.386;2023-02-11T04:23:45;34.77;;;15.80;;
21458;SDS011;10891;49.350;19.386;2023-02-11T04:26:12;40.63;;;15.50;;
21458;SDS011;10891;49.350;19.386;2023-02-11T04:28:39;15.13;;;7.77;;
21458;SDS011;10891;49.350;19.386;2023-02-11T04:31:06;53.43;;;21.77;;
21458;SDS011;10891;49.350;19.386;2023-02-11T04:33:34;17.10;;;7.60;;
21458;SDS011;10891;49.350;19.386;2023-02-11T04:36:01;26.37;;;12.17;;
21458;SDS011;10891;49.350;19.386;2023-02-11T04:38:28;35.03;;;15.53;;
21458;SDS011;10891;49.350;19.386;2023-02-11T04:40:57;39.57;;;16.17;;
21458;SDS011;10891;49.350;19.386;2023-02-11T04:43:25;25.63;;;12.20;;
21458;SDS011;10891;49.350;19.386;2023-02-11T04:45:55;49.07;;;22.00;;
21458;SDS011;10891;49.350;19.386;2023-02-11T04:48:22;32.87;;;16.00;;
21458;SDS011;10891;49.350;19.386;2023-02-11T04:50:49;34.83;;;14.67;;
21458;SDS011;10891;49.350;19.386;2023-02-11T04:53:16;30.87;;;16.60;;
21458;SDS011;10891;49.350;19.386;2023-02-11T04:55:43;31.50;;;14.97;;
21458;SDS011;10891;49.350;19.386;2023-02-11T04:58:11;33.30;;;15.90;;
21458;SDS011;10891;49.350;19.386;2023-02-11T05:00:38;30.40;;;12.33;;
21458;SDS011;10891;49.350;19.386;2023-02-11T05:03:05;36.80;;;16.20;;
21458;SDS011;10891;49.350;19.386;2023-02-11T05:05:32;22.90;;;11.23;;
21458;SDS011;10891;49.350;19.386;2023-02-11T05:07:59;28.77;;;12.27;;
21458;SDS011;10891;49.350;19.386;2023-02-11T05:10:26;25.07;;;10.87;;
21458;SDS011;10891;49.350;19.386;2023-02-11T05:12:52;24.53;;;10.07;;
21458;SDS011;10891;49.350;19.386;2023-02-11T05:15:21;31.63;;;11.90;;
21458;SDS011;10891;49.350;19.386;2023-02-11T05:17:47;39.53;;;17.50;;
21458;SDS011;10891;49.350;19.386;2023-02-11T05:20:14;38.57;;;14.47;;
21458;SDS011;10891;49.350;19.386;2023-02-11T05:22:41;34.90;;;16.53;;
21458;SDS011;10891;49.350;19.386;2023-02-11T05:25:08;56.23;;;22.97;;
21458;SDS011;10891;49.350;19.386;2023-02-11T05:27:35;52.03;;;17.00;;
21458;SDS011;10891;49.350;19.386;2023-02-11T05:30:02;49.37;;;18.47;;
21458;SDS011;10891;49.350;19.386;2023-02-11T05:32:32;32.60;;;14.13;;
21458;SDS011;10891;49.350;19.386;2023-02-11T05:34:58;50.27;;;21.43;;
21458;SDS011;10891;49.350;19.386;2023-02-11T05:37:25;26.63;;;11.40;;
21458;SDS011;10891;49.350;19.386;2023-02-11T05:39:52;69.03;;;26.50;;
21458;SDS011;10891;49.350;19.386;2023-02-11T05:42:19;66.73;;;22.73;;
21458;SDS011;10891;49.350;19.386;2023-02-11T05:44:46;25.73;;;10.93;;
21458;SDS011;10891;49.350;19.386;2023-02-11T05:47:13;24.13;;;12.07;;
21458;SDS011;10891;49.350;19.386;2023-02-11T05:49:41;82.90;;;29.07;;
21458;SDS011;10891;49.350;19.386;2023-02-11T05:52:08;55.50;;;17.60;;
21458;SDS011;10891;49.350;19.386;2023-02-11T05:54:35;21.53;;;9.87;;
21458;SDS011;10891;49.350;19.386;2023-02-11T05:57:02;31.97;;;13.03;;
21458;SDS011;10891;49.350;19.386;2023-02-11T05:59:29;39.23;;;18.40;;
21458;SDS011;10891;49.350;19.386;2023-02-11T06:01:55;72.03;;;27.73;;
21458;SDS011;10891;49.350;19.386;2023-02-11T06:04:22;71.03;;;28.23;;
21458;SDS011;10891;49.350;19.386;2023-02-11T06:06:51;58.43;;;26.33;;
21458;SDS011;10891;49.350;19.386;2023-02-11T06:09:17;45.67;;;21.07;;
21458;SDS011;10891;49.350;19.386;2023-02-11T06:11:44;33.67;;;15.73;;
21458;SDS011;10891;49.350;19.386;2023-02-11T06:14:11;48.23;;;22.83;;
21458;SDS011;10891;49.350;19.386;2023-02-11T06:16:38;31.53;;;14.10;;
21458;SDS011;10891;49.350;19.386;2023-02-11T06:19:05;37.63;;;14.30;;
21458;SDS011;10891;49.350;19.386;2023-02-11T06:21:32;37.23;;;17.17;;
21458;SDS011;10891;49.350;19.386;2023-02-11T06:24:00;45.00;;;19.53;;
21458;SDS011;10891;49.350;19.386;2023-02-11T06:26:27;42.80;;;19.43;;
21458;SDS011;10891;49.350;19.386;2023-02-11T06:28:54;38.93;;;16.27;;
21458;SDS011;10891;49.350;19.386;2023-02-11T06:31:21;39.50;;;16.83;;
21458;SDS011;10891;49.350;19.386;2023-02-11T06:33:48;41.87;;;19.43;;
21458;SDS011;10891;49.350;19.386;2023-02-11T06:36:16;35.50;;;15.97;;
21458;SDS011;10891;49.350;19.386;2023-02-11T06:38:44;38.63;;;17.70;;
21458;SDS011;10891;49.350;19.386;2023-02-11T06:41:14;37.00;;;19.73;;
21458;SDS011;10891;49.350;19.386;2023-02-11T06:43:44;66.33;;;25.83;;
21458;SDS011;10891;49.350;19.386;2023-02-11T06:46:11;40.40;;;17.43;;
21458;SDS011;10891;49.350;19.386;2023-02-11T06:48:38;50.43;;;22.07;;
21458;SDS011;10891;49.350;19.386;2023-02-11T06:51:05;59.43;;;25.07;;
21458;SDS011;10891;49.350;19.386;2023-02-11T06:53:34;38.73;;;17.40;;
21458;SDS011;10891;49.350;19.386;2023-02-11T06:56:03;42.30;;;19.67;;
21458;SDS011;10891;49.350;19.386;2023-02-11T06:58:32;48.67;;;20.50;;
21458;SDS011;10891;49.350;19.386;2023-02-11T07:01:02;61.27;;;23.00;;
21458;SDS011;10891;49.350;19.386;2023-02-11T07:03:30;68.43;;;27.90;;
21458;SDS011;10891;49.350;19.386;2023-02-11T07:05:58;45.43;;;20.70;;
21458;SDS011;10891;49.350;19.386;2023-02-11T07:08:25;46.08;;;21.65;;
21458;SDS011;10891;49.350;19.386;2023-02-11T07:10:52;43.07;;;19.80;;
21458;SDS011;10891;49.350;19.386;2023-02-11T07:13:19;29.00;;;13.30;;
21458;SDS011;10891;49.350;19.386;2023-02-11T07:15:47;45.45;;;20.88;;
21458;SDS011;10891;49.350;19.386;2023-02-11T07:18:14;181.17;;;61.53;;
21458;SDS011;10891;49.350;19.386;2023-02-11T07:20:41;129.73;;;43.22;;
21458;SDS011;10891;49.350;19.386;2023-02-11T07:23:08;110.45;;;41.75;;
21458;SDS011;10891;49.350;19.386;2023-02-11T07:25:35;58.75;;;26.75;;
21458;SDS011;10891;49.350;19.386;2023-02-11T07:28:02;66.45;;;26.77;;
21458;SDS011;10891;49.350;19.386;2023-02-11T07:30:29;36.50;;;17.23;;
21458;SDS011;10891;49.350;19.386;2023-02-11T07:32:57;32.85;;;15.43;;
21458;SDS011;10891;49.350;19.386;2023-02-11T07:35:24;42.63;;;18.25;;
21458;SDS011;10891;49.350;19.386;2023-02-11T07:37:51;45.13;;;20.73;;
21458;SDS011;10891;49.350;19.386;2023-02-11T07:40:18;45.90;;;18.92;;
21458;SDS011;10891;49.350;19.386;2023-02-11T07:42:45;41.22;;;19.65;;
21458;SDS011;10891;49.350;19.386;2023-02-11T07:45:12;31.27;;;15.23;;
21458;SDS011;10891;49.350;19.386;2023-02-11T07:47:39;36.28;;;18.15;;
21458;SDS011;10891;49.350;19.386;2023-02-11T07:50:08;41.10;;;18.52;;
21458;SDS011;10891;49.350;19.386;2023-02-11T07:52:35;45.97;;;21.13;;
21458;SDS011;10891;49.350;19.386;2023-02-11T07:55:02;38.85;;;19.58;;
21458;SDS011;10891;49.350;19.386;2023-02-11T07:57:29;33.20;;;16.33;;
21458;SDS011;10891;49.350;19.386;2023-02-11T07:59:56;48.92;;;24.42;;
21458;SDS011;10891;49.350;19.386;2023-02-11T08:02:23;43.90;;;21.38;;
21458;SDS011;10891;49.350;19.386;2023-02-11T08:04:50;87.22;;;43.22;;
21458;SDS011;10891;49.350;19.386;2023-02-11T08:07:18;37.08;;;19.17;;
21458;SDS011;10891;49.350;19.386;2023-02-11T08:09:45;19.75;;;8.90;;
21458;SDS011;10891;49.350;19.386;2023-02-11T08:12:12;33.72;;;16.63;;
21458;SDS011;10891;49.350;19.386;2023-02-11T08:14:39;30.92;;;15.30;;
21458;SDS011;10891;49.350;19.386;2023-02-11T08:17:05;38.97;;;17.98;;
21458;SDS011;10891;49.350;19.386;2023-02-11T08:19:32;37.45;;;18.08;;
21458;SDS011;10891;49.350;19.386;2023-02-11T08:21:59;35.85;;;18.88;;
21458;SDS011;10891;49.350;19.386;2023-02-11T08:24:28;30.92;;;16.15;;
21458;SDS011;10891;49.350;19.386;2023-02-11T08:26:55;37.70;;;17.67;;
21458;SDS011;10891;49.350;19.386;2023-02-11T08:29:21;37.85;;;17.30;;
21458;SDS011;10891;49.350;19.386;2023-02-11T08:31:49;41.35;;;21.13;;
21458;SDS011;10891;49.350;19.386;2023-02-11T08:34:18;20.52;;;11.05;;
21458;SDS011;10891;49.350;19.386;2023-02-11T08:36:46;33.20;;;16.42;;
21458;SDS011;10891;49.350;19.386;2023-02-11T08:39:14;15.23;;;7.68;;
21458;SDS011;10891;49.350;19.386;2023-02-11T08:41:44;26.70;;;9.40;;
21458;SDS011;10891;49.350;19.386;2023-02-11T08:44:12;31.08;;;13.43;;
21458;SDS011;10891;49.350;19.386;2023-02-11T08:46:39;28.92;;;13.73;;
21458;SDS011;10891;49.350;19.386;2023-02-11T08:49:06;32.88;;;16.20;;
21458;SDS011;10891;49.350;19.386;2023-02-11T08:51:33;33.30;;;14.90;;
21458;SDS011;10891;49.350;19.386;2023-02-11T08:54:00;36.00;;;15.52;;
21458;SDS011;10891;49.350;19.386;2023-02-11T08:56:27;34.45;;;15.90;;
21458;SDS011;10891;49.350;19.386;2023-02-11T08:58:57;27.02;;;13.18;;
21458;SDS011;10891;49.350;19.386;2023-02-11T09:01:25;36.95;;;17.27;;
21458;SDS011;10891;49.350;19.386;2023-02-11T09:03:53;38.67;;;16.60;;
21458;SDS011;10891;49.350;19.386;2023-02-11T09:06:21;28.52;;;13.27;;
21458;SDS011;10891;49.350;19.386;2023-02-11T09:08:50;35.78;;;17.55;;
21458;SDS011;10891;49.350;19.386;2023-02-11T09:11:19;40.00;;;18.80;;
21458;SDS011;10891;49.350;19.386;2023-02-11T09:13:48;37.30;;;16.45;;
21458;SDS011;10891;49.350;19.386;2023-02-11T09:16:17;43.03;;;18.23;;
21458;SDS011;10891;49.350;19.386;2023-02-11T09:18:45;38.63;;;17.73;;
21458;SDS011;10891;49.350;19.386;2023-02-11T09:21:12;42.88;;;18.75;;
21458;SDS011;10891;49.350;19.386;2023-02-11T09:23:41;33.65;;;15.00;;
21458;SDS011;10891;49.350;19.386;2023-02-11T09:26:11;42.78;;;19.88;;
21458;SDS011;10891;49.350;19.386;2023-02-11T09:28:40;33.92;;;15.77;;
21458;SDS011;10891;49.350;19.386;2023-02-11T09:31:07;65.00;;;20.63;;
21458;SDS011;10891;49.350;19.386;2023-02-11T09:33:37;79.45;;;23.73;;
21458;SDS011;10891;49.350;19.386;2023-02-11T09:36:12;104.15;;;30.05;;
21458;SDS011;10891;49.350;19.386;2023-02-11T09:38:40;159.85;;;49.38;;
21458;SDS011;10891;49.350;19.386;2023-02-11T09:41:12;34.53;;;14.73;;
21458;SDS011;10891;49.350;19.386;2023-02-11T09:44:01;32.10;;;15.65;;
21458;SDS011;10891;49.350;19.386;2023-02-11T09:46:31;30.85;;;16.10;;
21458;SDS011;10891;49.350;19.386;2023-02-11T09:49:01;26.05;;;12.05;;
21458;SDS011;10891;49.350;19.386;2023-02-11T09:51:32;26.58;;;12.27;;
21458;SDS011;10891;49.350;19.386;2023-02-11T09:54:06;22.02;;;10.32;;
21458;SDS011;10891;49.350;19.386;2023-02-11T09:56:38;34.83;;;14.05;;
21458;SDS011;10891;49.350;19.386;2023-02-11T09:59:08;36.42;;;17.27;;
21458;SDS011;10891;49.350;19.386;2023-02-11T10:01:37;33.08;;;15.70;;
21458;SDS011;10891;49.350;19.386;2023-02-11T10:04:10;27.05;;;12.32;;
21458;SDS011;10891;49.350;19.386;2023-02-11T10:06:46;23.77;;;11.95;;
21458;SDS011;10891;49.350;19.386;2023-02-11T10:12:19;26.45;;;14.95;;
21458;SDS011;10891;49.350;19.386;2023-02-11T10:15:07;27.23;;;13.35;;
21458;SDS011;10891;49.350;19.386;2023-02-11T10:17:45;32.58;;;15.40;;
21458;SDS011;10891;49.350;19.386;2023-02-11T10:20:24;29.58;;;14.43;;
21458;SDS011;10891;49.350;19.386;2023-02-11T10:22:58;26.33;;;12.75;;
21458;SDS011;10891;49.350;19.386;2023-02-11T10:25:32;22.58;;;11.00;;
21458;SDS011;10891;49.350;19.386;2023-02-11T10:28:09;32.83;;;15.65;;
21458;SDS011;10891;49.350;19.386;2023-02-11T10:30:40;34.75;;;15.60;;
21458;SDS011;10891;49.350;19.386;2023-02-11T10:33:12;30.70;;;14.98;;
21458;SDS011;10891;49.350;19.386;2023-02-11T10:35:46;29.20;;;14.43;;
21458;SDS011;10891;49.350;19.386;2023-02-11T10:38:14;33.67;;;16.60;;
21458;SDS011;10891;49.350;19.386;2023-02-11T10:40:41;35.35;;;14.15;;
21458;SDS011;10891;49.350;19.386;2023-02-11T10:43:09;60.42;;;25.00;;
21458;SDS011;10891;49.350;19.386;2023-02-11T10:45:40;34.55;;;16.15;;
21458;SDS011;10891;49.350;19.386;2023-02-11T10:51:17;21.98;;;11.30;;
21458;SDS011;10891;49.350;19.386;2023-02-11T10:53:46;30.83;;;14.85;;
21458;SDS011;10891;49.350;19.386;2023-02-11T10:56:18;34.40;;;17.20;;
21458;SDS011;10891;49.350;19.386;2023-02-11T10:58:53;51.33;;;24.42;;
21458;SDS011;10891;49.350;19.386;2023-02-11T11:01:35;81.10;;;33.13;;
21458;SDS011;10891;49.350;19.386;2023-02-11T11:04:04;31.70;;;13.55;;
21458;SDS011;10891;49.350;19.386;2023-02-11T11:06:33;27.15;;;16.00;;
21458;SDS011;10891;49.350;19.386;2023-02-11T11:09:00;25.10;;;13.70;;
21458;SDS011;10891;49.350;19.386;2023-02-11T11:11:28;28.60;;;15.32;;
21458;SDS011;10891;49.350;19.386;2023-02-11T11:13:56;18.80;;;8.63;;
21458;SDS011;10891;49.350;19.386;2023-02-11T11:16:24;23.85;;;10.75;;
21458;SDS011;10891;49.350;19.386;2023-02-11T11:18:53;17.02;;;8.55;;
21458;SDS011;10891;49.350;19.386;2023-02-11T11:21:45;30.58;;;12.82;;
21458;SDS011;10891;49.350;19.386;2023-02-11T11:24:15;21.67;;;11.57;;
21458;SDS011;10891;49.350;19.386;2023-02-11T11:26:45;31.05;;;16.77;;
21458;SDS011;10891;49.350;19.386;2023-02-11T11:29:15;28.23;;;11.50;;
21458;SDS011;10891;49.350;19.386;2023-02-11T11:31:45;29.23;;;13.48;;
21458;SDS011;10891;49.350;19.386;2023-02-11T11:34:19;20.80;;;10.50;;
21458;SDS011;10891;49.350;19.386;2023-02-11T11:36:49;30.98;;;14.50;;
21458;SDS011;10891;49.350;19.386;2023-02-11T11:39:17;25.08;;;11.50;;
21458;SDS011;10891;49.350;19.386;2023-02-11T11:41:51;27.88;;;15.63;;
21458;SDS011;10891;49.350;19.386;2023-02-11T11:44:26;23.38;;;11.48;;
21458;SDS011;10891;49.350;19.386;2023-02-11T11:47:06;32.20;;;14.63;;
21458;SDS011;10891;49.350;19.386;2023-02-11T11:50:04;30.38;;;15.18;;
21458;SDS011;10891;49.350;19.386;2023-02-11T11:52:53;30.83;;;17.55;;
21458;SDS011;10891;49.350;19.386;2023-02-11T11:55:26;25.20;;;13.70;;
21458;SDS011;10891;49.350;19.386;2023-02-11T11:57:56;31.55;;;16.05;;
21458;SDS011;10891;49.350;19.386;2023-02-11T12:00:25;32.28;;;19.23;;
21458;SDS011;10891;49.350;19.386;2023-02-11T12:06:14;54.67;;;25.45;;
21458;SDS011;10891;49.350;19.386;2023-02-11T12:08:52;47.15;;;23.05;;
21458;SDS011;10891;49.350;19.386;2023-02-11T12:11:29;61.25;;;34.60;;
21458;SDS011;10891;49.350;19.386;2023-02-11T12:14:05;37.72;;;15.90;;
21458;SDS011;10891;49.350;19.386;2023-02-11T12:16:44;60.08;;;28.83;;
21458;SDS011;10891;49.350;19.386;2023-02-11T12:22:17;40.80;;;18.90;;
21458;SDS011;10891;49.350;19.386;2023-02-11T12:24:58;41.70;;;21.90;;
21458;SDS011;10891;49.350;19.386;2023-02-11T12:27:39;31.02;;;13.82;;
21458;SDS011;10891;49.350;19.386;2023-02-11T12:30:16;39.35;;;19.40;;
21458;SDS011;10891;49.350;19.386;2023-02-11T12:32:48;33.35;;;15.70;;
21458;SDS011;10891;49.350;19.386;2023-02-11T12:35:25;46.88;;;22.13;;
21458;SDS011;10891;49.350;19.386;2023-02-11T12:38:05;59.83;;;26.55;;
21458;SDS011;10891;49.350;19.386;2023-02-11T12:40:45;49.72;;;22.15;;
21458;SDS011;10891;49.350;19.386;2023-02-11T12:43:23;49.83;;;23.38;;
21458;SDS011;10891;49.350;19.386;2023-02-11T12:49:02;87.15;;;31.88;;
21458;SDS011;10891;49.350;19.386;2023-02-11T12:51:44;74.22;;;28.60;;
21458;SDS011;10891;49.350;19.386;2023-02-11T12:54:25;72.85;;;27.95;;
21458;SDS011;10891;49.350;19.386;2023-02-11T12:56:56;67.57;;;27.85;;
21458;SDS011;10891;49.350;19.386;2023-02-11T12:59:32;65.53;;;29.52;;
21458;SDS011;10891;49.350;19.386;2023-02-11T13:02:10;91.20;;;40.28;;
21458;SDS011;10891;49.350;19.386;2023-02-11T13:04:47;51.58;;;22.67;;
21458;SDS011;10891;49.350;19.386;2023-02-11T13:07:20;40.45;;;21.55;;
21458;SDS011;10891;49.350;19.386;2023-02-11T13:09:54;55.63;;;26.83;;
21458;SDS011;10891;49.350;19.386;2023-02-11T13:12:26;58.17;;;26.10;;
21458;SDS011;10891;49.350;19.386;2023-02-11T13:15:13;66.25;;;29.25;;
21458;SDS011;10891;49.350;19.386;2023-02-11T13:17:43;152.00;;;55.65;;
21458;SDS011;10891;49.350;19.386;2023-02-11T13:20:25;44.97;;;20.98;;
21458;SDS011;10891;49.350;19.386;2023-02-11T13:23:02;39.35;;;20.23;;
21458;SDS011;10891;49.350;19.386;2023-02-11T13:25:41;37.22;;;16.17;;
21458;SDS011;10891;49.350;19.386;2023-02-11T13:28:16;35.33;;;19.88;;
21458;SDS011;10891;49.350;19.386;2023-02-11T13:30:48;37.35;;;20.58;;
21458;SDS011;10891;49.350;19.386;2023-02-11T13:33:35;39.10;;;21.45;;
21458;SDS011;10891;49.350;19.386;2023-02-11T13:36:11;38.90;;;20.20;;
21458;SDS011;10891;49.350;19.386;2023-02-11T13:38:59;43.17;;;20.00;;
21458;SDS011;10891;49.350;19.386;2023-02-11T13:41:30;45.60;;;21.95;;
21458;SDS011;10891;49.350;19.386;2023-02-11T13:44:00;52.78;;;25.30;;
21458;SDS011;10891;49.350;19.386;2023-02-11T13:49:18;41.42;;;18.20;;
21458;SDS011;10891;49.350;19.386;2023-02-11T13:51:47;55.50;;;26.30;;
21458;SDS011;10891;49.350;19.386;2023-02-11T13:54:19;84.43;;;39.65;;
21458;SDS011;10891;49.350;19.386;2023-02-11T13:59:53;69.85;;;33.45;;
21458;SDS011;10891;49.350;19.386;2023-02-11T14:02:22;51.42;;;24.17;;
21458;SDS011;10891;49.350;19.386;2023-02-11T14:05:20;46.33;;;19.58;;
21458;SDS011;10891;49.350;19.386;2023-02-11T14:08:17;57.28;;;26.05;;
21458;SDS011;10891;49.350;19.386;2023-02-11T14:11:03;58.13;;;28.98;;
21458;SDS011;10891;49.350;19.386;2023-02-11T14:13:38;49.38;;;23.20;;
21458;SDS011;10891;49.350;19.386;2023-02-11T14:16:49;48.78;;;22.23;;
21458;SDS011;10891;49.350;19.386;2023-02-11T14:19:45;74.78;;;33.40;;
21458;SDS011;10891;49.350;19.386;2023-02-11T14:22:14;68.55;;;26.38;;
21458;SDS011;10891;49.350;19.386;2023-02-11T14:24:46;95.80;;;33.70;;
21458;SDS011;10891;49.350;19.386;2023-02-11T14:27:21;64.63;;;28.85;;
21458;SDS011;10891;49.350;19.386;2023-02-11T14:39:13;85.70;;;32.80;;
21458;SDS011;10891;49.350;19.386;2023-02-11T14:41:47;80.25;;;25.23;;
21458;SDS011;10891;49.350;19.386;2023-02-11T14:44:15;104.85;;;37.10;;
21458;SDS011;10891;49.350;19.386;2023-02-11T14:46:46;103.18;;;37.40;;
21458;SDS011;10891;49.350;19.386;2023-02-11T14:49:17;72.50;;;26.95;;
21458;SDS011;10891;49.350;19.386;2023-02-11T14:51:52;63.47;;;26.10;;
21458;SDS011;10891;49.350;19.386;2023-02-11T14:54:22;73.15;;;29.92;;
21458;SDS011;10891;49.350;19.386;2023-02-11T14:57:05;57.50;;;23.92;;
21458;SDS011;10891;49.350;19.386;2023-02-11T14:59:34;60.13;;;25.75;;
21458;SDS011;10891;49.350;19.386;2023-02-11T15:02:01;64.57;;;28.65;;
21458;SDS011;10891;49.350;19.386;2023-02-11T15:04:29;57.17;;;27.25;;
21458;SDS011;10891;49.350;19.386;2023-02-11T15:07:04;77.90;;;42.38;;